Time,TemperatureF,DewpointF,PressureIn,WindDirection,WindDirectionDegrees,WindSpeedMPH,WindSpeedGustMPH,Humidity,HourlyPrecipIn,Conditions,Clouds,dailyrainin,SolarRadiationWatts/m^2,SoftwareType,DateUTC
2013-04-26 00:12:00,71.0,63.0,30.34,ENE,73,18.0,34.0,77,0.00,,,0.00,0.000000,,2013-04-26 10:12:00,
2013-04-26 00:22:00,71.0,63.0,30.34,ENE,73,18.0,34.0,77,0.00,,,0.00,0.000000,,2013-04-26 10:22:00,
2013-04-26 00:33:00,71.0,63.0,30.34,ENE,73,18.0,34.0,77,0.00,,,0.00,0.000000,,2013-04-26 10:33:00,
2013-04-26 00:42:00,71.0,63.0,30.34,ENE,73,18.0,34.0,77,0.00,,,0.00,0.000000,,2013-04-26 10:42:00,
2013-04-26 00:52:00,71.0,63.0,30.34,ENE,73,18.0,34.0,77,0.00,,,0.00,0.000000,,2013-04-26 10:52:00,
2013-04-26 01:11:00,72.0,65.0,30.32,East,87,17.0,30.0,80,0.00,,,0.00,0.000000,,2013-04-26 11:11:00,
2013-04-26 01:22:00,72.0,65.0,30.32,East,87,17.0,30.0,80,0.00,,,0.00,0.000000,,2013-04-26 11:22:00,
2013-04-26 01:32:00,72.0,65.0,30.32,East,87,17.0,30.0,80,0.00,,,0.00,0.000000,,2013-04-26 11:32:00,
2013-04-26 01:41:00,72.0,65.0,30.32,East,87,17.0,30.0,80,0.00,,,0.00,0.000000,,2013-04-26 11:41:00,
2013-04-26 01:51:00,72.0,65.0,30.32,East,87,17.0,30.0,80,0.00,,,0.00,0.000000,,2013-04-26 11:51:00,
2013-04-26 02:11:00,70.0,63.0,30.32,ENE,77,19.0,32.0,79,0.00,,,-99.99,0.000000,,2013-04-26 12:11:00,
2013-04-26 02:21:00,70.0,63.0,30.32,ENE,77,19.0,32.0,79,0.00,,,-99.99,0.000000,,2013-04-26 12:21:00,
2013-04-26 02:32:00,70.0,63.0,30.32,ENE,77,19.0,32.0,79,0.00,,,-99.99,0.000000,,2013-04-26 12:32:00,
2013-04-26 02:41:00,70.0,63.0,30.32,ENE,77,19.0,32.0,79,0.00,,,-99.99,0.000000,,2013-04-26 12:41:00,
2013-04-26 02:51:00,70.0,63.0,30.32,ENE,77,19.0,32.0,79,0.00,,,-99.99,0.000000,,2013-04-26 12:51:00,
2013-04-26 03:11:00,72.0,65.0,30.30,ENE,70,18.0,30.0,79,0.00,,,0.00,0.000000,,2013-04-26 13:11:00,
2013-04-26 03:21:00,72.0,65.0,30.30,ENE,70,18.0,30.0,79,0.00,,,0.00,0.000000,,2013-04-26 13:21:00,
2013-04-26 03:31:00,72.0,65.0,30.30,ENE,70,18.0,30.0,79,0.00,,,0.00,0.000000,,2013-04-26 13:31:00,
2013-04-26 03:41:00,72.0,65.0,30.30,ENE,70,18.0,30.0,79,0.00,,,0.00,0.000000,,2013-04-26 13:41:00,
2013-04-26 03:52:00,72.0,65.0,30.30,ENE,70,18.0,30.0,79,0.00,,,0.00,0.000000,,2013-04-26 13:52:00,
2013-04-26 04:21:00,70.0,64.0,30.30,East,85,20.0,30.0,80,0.00,,,0.00,0.000000,,2013-04-26 14:21:00,
2013-04-26 04:32:00,70.0,64.0,30.30,East,85,20.0,30.0,80,0.00,,,0.00,0.000000,,2013-04-26 14:32:00,
2013-04-26 04:41:00,70.0,64.0,30.30,East,85,20.0,30.0,80,0.00,,,0.00,0.000000,,2013-04-26 14:41:00,
2013-04-26 04:51:00,70.0,64.0,30.30,East,85,20.0,30.0,80,0.00,,,0.00,0.000000,,2013-04-26 14:51:00,
2013-04-26 05:12:00,70.0,62.0,30.30,ENE,64,15.0,33.0,75,0.00,,,0.00,0.000000,,2013-04-26 15:12:00,
2013-04-26 05:21:00,70.0,62.0,30.30,ENE,64,15.0,33.0,75,0.00,,,0.00,0.000000,,2013-04-26 15:21:00,
2013-04-26 05:33:00,70.0,62.0,30.30,ENE,64,15.0,33.0,75,0.00,,,0.00,0.000000,,2013-04-26 15:33:00,
2013-04-26 05:42:00,70.0,62.0,30.30,ENE,64,15.0,33.0,75,0.00,,,0.00,0.000000,,2013-04-26 15:42:00,
2013-04-26 05:52:00,70.0,62.0,30.30,ENE,64,15.0,33.0,75,0.00,,,0.00,0.000000,,2013-04-26 15:52:00,
2013-04-26 06:12:00,70.0,62.0,30.30,East,86,18.0,29.0,76,0.00,,,0.00,0.000000,,2013-04-26 16:12:00,
2013-04-26 06:23:00,70.0,62.0,30.30,East,86,18.0,29.0,76,0.00,,,0.00,0.000000,,2013-04-26 16:23:00,
2013-04-26 06:33:00,70.0,62.0,30.30,East,86,18.0,29.0,76,0.00,,,0.00,0.000000,,2013-04-26 16:33:00,
2013-04-26 06:42:00,70.0,62.0,30.30,East,86,18.0,29.0,76,0.00,,,0.00,0.000000,,2013-04-26 16:42:00,
2013-04-26 06:52:00,70.0,62.0,30.30,East,86,18.0,29.0,76,0.00,,,0.00,0.000000,,2013-04-26 16:52:00,
2013-04-26 07:21:00,73.0,62.0,30.32,ENE,70,15.0,33.0,68,0.00,,,0.00,0.000000,,2013-04-26 17:21:00,
2013-04-26 07:31:00,73.0,62.0,30.32,ENE,70,15.0,33.0,68,0.00,,,0.00,0.000000,,2013-04-26 17:31:00,
2013-04-26 07:41:00,73.0,62.0,30.32,ENE,70,15.0,33.0,68,0.00,,,0.00,0.000000,,2013-04-26 17:41:00,
2013-04-26 07:51:00,73.0,62.0,30.32,ENE,70,15.0,33.0,68,0.00,,,0.00,0.000000,,2013-04-26 17:51:00,
2013-04-26 08:11:00,73.0,63.0,30.33,East,82,21.0,33.0,71,0.00,,,0.00,60.000000,,2013-04-26 18:11:00,
2013-04-26 08:22:00,73.0,63.0,30.33,East,82,21.0,33.0,71,0.00,,,0.00,60.000000,,2013-04-26 18:22:00,
2013-04-26 08:33:00,73.0,63.0,30.33,East,82,21.0,33.0,71,0.00,,,0.00,60.000000,,2013-04-26 18:33:00,
2013-04-26 08:41:00,73.0,63.0,30.33,East,82,21.0,33.0,71,0.00,,,0.00,60.000000,,2013-04-26 18:41:00,
2013-04-26 08:51:00,73.0,63.0,30.33,East,82,21.0,33.0,71,0.00,,,0.00,60.000000,,2013-04-26 18:51:00,
2013-04-26 09:22:00,74.0,64.0,30.34,East,82,23.0,35.0,72,0.00,,,0.00,303.000000,,2013-04-26 19:22:00,
2013-04-26 09:31:00,74.0,64.0,30.34,East,82,23.0,35.0,72,0.00,,,0.00,303.000000,,2013-04-26 19:31:00,
2013-04-26 09:41:00,74.0,64.0,30.34,East,82,23.0,35.0,72,0.00,,,0.00,303.000000,,2013-04-26 19:41:00,
2013-04-26 09:52:00,74.0,64.0,30.34,East,82,23.0,35.0,72,0.00,,,0.00,303.000000,,2013-04-26 19:52:00,
2013-04-26 10:11:00,77.0,63.0,30.35,East,88,21.0,38.0,63,0.00,,,0.00,559.000000,,2013-04-26 20:11:00,
2013-04-26 10:21:00,77.0,63.0,30.35,East,88,21.0,38.0,63,0.00,,,0.00,559.000000,,2013-04-26 20:21:00,
2013-04-26 10:32:00,77.0,63.0,30.35,East,88,21.0,38.0,63,0.00,,,0.00,559.000000,,2013-04-26 20:32:00,
2013-04-26 10:41:00,77.0,63.0,30.35,East,88,21.0,38.0,63,0.00,,,0.00,559.000000,,2013-04-26 20:41:00,
2013-04-26 10:51:00,77.0,63.0,30.35,East,88,21.0,38.0,63,0.00,,,0.00,559.000000,,2013-04-26 20:51:00,
2013-04-26 11:11:00,78.0,63.0,30.33,East,96,24.0,40.0,61,0.00,,,0.00,894.000000,,2013-04-26 21:11:00,
2013-04-26 11:21:00,78.0,63.0,30.33,East,96,24.0,40.0,61,0.00,,,0.00,894.000000,,2013-04-26 21:21:00,
2013-04-26 11:32:00,78.0,63.0,30.33,East,96,24.0,40.0,61,0.00,,,0.00,894.000000,,2013-04-26 21:32:00,
2013-04-26 11:42:00,78.0,63.0,30.33,East,96,24.0,40.0,61,0.00,,,0.00,894.000000,,2013-04-26 21:42:00,
2013-04-26 11:52:00,78.0,63.0,30.33,East,96,24.0,40.0,61,0.00,,,0.00,894.000000,,2013-04-26 21:52:00,
2013-04-26 12:12:00,78.0,64.0,30.33,East,96,24.0,41.0,62,0.00,,,0.00,1069.000000,,2013-04-26 22:12:00,
2013-04-26 12:22:00,78.0,64.0,30.33,East,96,24.0,41.0,62,0.00,,,0.00,1069.000000,,2013-04-26 22:22:00,
2013-04-26 12:32:00,78.0,64.0,30.33,East,96,24.0,41.0,62,0.00,,,0.00,1069.000000,,2013-04-26 22:32:00,
2013-04-26 12:42:00,78.0,64.0,30.33,East,96,24.0,41.0,62,0.00,,,0.00,1069.000000,,2013-04-26 22:42:00,
2013-04-26 12:52:00,78.0,64.0,30.33,East,96,24.0,41.0,62,0.00,,,0.00,1069.000000,,2013-04-26 22:52:00,
2013-04-26 13:21:00,78.0,63.0,30.32,East,94,23.0,37.0,60,0.00,,,0.00,1188.000000,,2013-04-26 23:21:00,
2013-04-26 13:32:00,78.0,63.0,30.32,East,94,23.0,37.0,60,0.00,,,0.00,1188.000000,,2013-04-26 23:32:00,
2013-04-26 13:42:00,78.0,63.0,30.32,East,94,23.0,37.0,60,0.00,,,0.00,1188.000000,,2013-04-26 23:42:00,
2013-04-26 13:52:00,78.0,63.0,30.32,East,94,23.0,37.0,60,0.00,,,0.00,1188.000000,,2013-04-26 23:52:00,
2013-04-26 14:11:00,77.0,62.0,30.30,East,93,23.0,36.0,60,0.00,,,0.00,1221.000000,,2013-04-27 00:11:00,
2013-04-26 14:21:00,77.0,62.0,30.30,East,93,23.0,36.0,60,0.00,,,0.00,1221.000000,,2013-04-27 00:21:00,
2013-04-26 14:32:00,77.0,62.0,30.30,East,93,23.0,36.0,60,0.00,,,0.00,1221.000000,,2013-04-27 00:32:00,
2013-04-26 14:41:00,77.0,62.0,30.30,East,93,23.0,36.0,60,0.00,,,0.00,1221.000000,,2013-04-27 00:41:00,
2013-04-26 14:51:00,77.0,62.0,30.30,East,93,23.0,36.0,60,0.00,,,0.00,1221.000000,,2013-04-27 00:51:00,
2013-04-26 15:11:00,77.0,64.0,30.30,East,97,25.0,38.0,65,0.00,,,0.00,1188.000000,,2013-04-27 01:11:00,
2013-04-26 15:21:00,77.0,64.0,30.30,East,97,25.0,38.0,65,0.00,,,0.00,1188.000000,,2013-04-27 01:21:00,
2013-04-26 15:32:00,77.0,64.0,30.30,East,97,25.0,38.0,65,0.00,,,0.00,1188.000000,,2013-04-27 01:32:00,
2013-04-26 15:41:00,77.0,64.0,30.30,East,97,25.0,38.0,65,0.00,,,0.00,1188.000000,,2013-04-27 01:41:00,
2013-04-26 15:52:00,77.0,64.0,30.30,East,97,25.0,38.0,65,0.00,,,0.00,1188.000000,,2013-04-27 01:52:00,
2013-04-26 16:11:00,77.0,64.0,30.28,East,91,22.0,36.0,65,0.00,,,0.00,1074.000000,,2013-04-27 02:11:00,
2013-04-26 16:22:00,77.0,64.0,30.28,East,91,22.0,36.0,65,0.00,,,0.00,1074.000000,,2013-04-27 02:22:00,
2013-04-26 16:32:00,77.0,64.0,30.28,East,91,22.0,36.0,65,0.00,,,0.00,1074.000000,,2013-04-27 02:32:00,
2013-04-26 16:42:00,77.0,64.0,30.28,East,91,22.0,36.0,65,0.00,,,0.00,1074.000000,,2013-04-27 02:42:00,
2013-04-26 16:51:00,77.0,64.0,30.28,East,91,22.0,36.0,65,0.00,,,0.00,1074.000000,,2013-04-27 02:51:00,
2013-04-26 17:22:00,76.0,63.0,30.28,East,91,21.0,34.0,65,0.00,,,0.00,879.000000,,2013-04-27 03:22:00,
2013-04-26 17:32:00,76.0,63.0,30.28,East,91,21.0,34.0,65,0.00,,,0.00,879.000000,,2013-04-27 03:32:00,
2013-04-26 17:42:00,76.0,63.0,30.28,East,91,21.0,34.0,65,0.00,,,0.00,879.000000,,2013-04-27 03:42:00,
2013-04-26 17:52:00,76.0,63.0,30.28,East,91,21.0,34.0,65,0.00,,,0.00,879.000000,,2013-04-27 03:52:00,
2013-04-26 18:22:00,73.0,61.0,30.29,East,85,21.0,33.0,66,0.00,,,0.00,571.000000,,2013-04-27 04:22:00,
2013-04-26 18:33:00,73.0,61.0,30.29,East,85,21.0,33.0,66,0.00,,,0.00,571.000000,,2013-04-27 04:33:00,
2013-04-26 18:43:00,73.0,61.0,30.29,East,85,21.0,33.0,66,0.00,,,0.00,571.000000,,2013-04-27 04:43:00,
2013-04-26 18:52:00,73.0,61.0,30.29,East,85,21.0,33.0,66,0.00,,,0.00,571.000000,,2013-04-27 04:52:00,
2013-04-26 19:12:00,71.0,61.0,30.30,East,89,20.0,34.0,71,0.00,,,0.00,78.000000,,2013-04-27 05:12:00,
2013-04-26 19:22:00,71.0,61.0,30.30,East,89,20.0,34.0,71,0.00,,,0.00,78.000000,,2013-04-27 05:22:00,
2013-04-26 19:32:00,71.0,61.0,30.30,East,89,20.0,34.0,71,0.00,,,0.00,78.000000,,2013-04-27 05:32:00,
2013-04-26 19:42:00,71.0,61.0,30.30,East,89,20.0,34.0,71,0.00,,,0.00,78.000000,,2013-04-27 05:42:00,
2013-04-26 19:51:00,71.0,61.0,30.30,East,89,20.0,34.0,71,0.00,,,0.00,78.000000,,2013-04-27 05:51:00,
2013-04-26 20:12:00,72.0,63.0,30.31,East,90,19.0,31.0,73,0.00,,,0.00,33.000000,,2013-04-27 06:12:00,
2013-04-26 20:22:00,72.0,63.0,30.31,East,90,19.0,31.0,73,0.00,,,0.00,33.000000,,2013-04-27 06:22:00,
2013-04-26 20:32:00,72.0,63.0,30.31,East,90,19.0,31.0,73,0.00,,,0.00,33.000000,,2013-04-27 06:32:00,
2013-04-26 20:41:00,72.0,63.0,30.31,East,90,19.0,31.0,73,0.00,,,0.00,33.000000,,2013-04-27 06:41:00,
2013-04-26 20:51:00,72.0,63.0,30.31,East,90,19.0,31.0,73,0.00,,,0.00,33.000000,,2013-04-27 06:51:00,
2013-04-26 21:21:00,72.0,63.0,30.32,East,79,18.0,31.0,74,0.00,,,0.00,0.000000,,2013-04-27 07:21:00,
2013-04-26 21:31:00,72.0,63.0,30.32,East,79,18.0,31.0,74,0.00,,,0.00,0.000000,,2013-04-27 07:31:00,
2013-04-26 21:42:00,72.0,63.0,30.32,East,79,18.0,31.0,74,0.00,,,0.00,0.000000,,2013-04-27 07:42:00,
2013-04-26 21:52:00,72.0,63.0,30.32,East,79,18.0,31.0,74,0.00,,,0.00,0.000000,,2013-04-27 07:52:00,
2013-04-26 22:11:00,70.0,62.0,30.33,ENE,78,19.0,28.0,77,0.00,,,0.00,0.000000,,2013-04-27 08:11:00,
2013-04-26 22:21:00,70.0,62.0,30.33,ENE,78,19.0,28.0,77,0.00,,,0.00,0.000000,,2013-04-27 08:21:00,
2013-04-26 22:33:00,70.0,62.0,30.33,ENE,78,19.0,28.0,77,0.00,,,0.00,0.000000,,2013-04-27 08:33:00,
2013-04-26 22:41:00,70.0,62.0,30.33,ENE,78,19.0,28.0,77,0.00,,,0.00,0.000000,,2013-04-27 08:41:00,
2013-04-26 22:51:00,70.0,62.0,30.33,ENE,78,19.0,28.0,77,0.00,,,0.00,0.000000,,2013-04-27 08:51:00,
2013-04-26 22:53:00,70.0,63.0,30.33,ENE,78,20.0,29.0,78,0.00,,,0.00,0.000000,,2013-04-27 08:53:00,
2013-04-26 23:11:00,70.0,63.0,30.33,ENE,78,20.0,29.0,78,0.00,,,0.00,0.000000,,2013-04-27 09:11:00,
2013-04-26 23:21:00,70.0,63.0,30.33,ENE,78,20.0,29.0,78,0.00,,,0.00,0.000000,,2013-04-27 09:21:00,
2013-04-26 23:33:00,70.0,63.0,30.33,ENE,78,20.0,29.0,78,0.00,,,0.00,0.000000,,2013-04-27 09:33:00,
2013-04-26 23:42:00,70.0,63.0,30.33,ENE,78,20.0,29.0,78,0.00,,,0.00,0.000000,,2013-04-27 09:42:00,